Time;durP1;ratioP1;P1;durP2;ratioP2;P2;SDS_P1;SDS_P2;PMS_P1;PMS_P2;Temp;Humidity;BMP_temperature;BMP_pressure;BME280_temperature;BME280_humidity;BME280_pressure;Samples;Min_cycle;Max_cycle;Signal;HPM_P1;HPM_P2
2022/11/09 00:01:20;;;;;;;9.27;2.60;;;;;;;13.15;82.01;100446.34;5058676;28;20033;-65
2022/11/09 00:03:46;;;;;;;5.35;2.45;;;;;;;13.14;82.15;100458.56;5061865;28;20033;-65
2022/11/09 00:06:11;;;;;;;6.57;2.30;;;;;;;13.13;82.27;100454.19;5064629;28;20049;-65
2022/11/09 00:08:38;;;;;;;9.00;2.60;;;;;;;13.12;82.30;100449.84;5065434;28;20161;-65
2022/11/09 00:11:08;;;;;;;5.75;2.70;;;;;;;13.11;82.24;100453.31;5064466;28;20028;-65
2022/11/09 00:13:41;;;;;;;7.45;2.78;;;;;;;13.10;82.47;100458.56;5064457;28;20025;-65
2022/11/09 00:16:09;;;;;;;7.38;2.78;;;;;;;13.07;82.60;100458.53;5064599;28;20040;-65
2022/11/09 00:18:35;;;;;;;7.60;2.67;;;;;;;13.07;82.80;100450.69;5063266;28;20032;-65
2022/11/09 00:21:08;;;;;;;6.53;2.80;;;;;;;13.03;82.87;100455.91;5062865;28;20055;-65
2022/11/09 00:23:35;;;;;;;7.25;2.53;;;;;;;13.03;83.16;100449.78;5064335;28;20088;-65
2022/11/09 00:26:02;;;;;;;7.20;2.58;;;;;;;13.03;83.34;100450.66;5063860;28;20045;-65
2022/11/09 00:28:27;;;;;;;6.45;2.63;;;;;;;13.04;83.48;100451.53;5063940;28;20084;-65
2022/11/09 00:31:05;;;;;;;6.03;2.70;;;;;;;13.05;83.40;100455.91;5062715;28;20025;-65
2022/11/09 00:33:30;;;;;;;10.18;2.92;;;;;;;13.06;83.54;100444.56;5063674;28;20369;-65
2022/11/09 00:35:55;;;;;;;6.43;2.65;;;;;;;13.08;83.54;100449.78;5063830;28;20049;-65
2022/11/09 00:38:21;;;;;;;6.15;2.70;;;;;;;13.09;83.68;100447.19;5064210;28;20024;-65
2022/11/09 00:40:46;;;;;;;7.72;2.70;;;;;;;13.10;83.25;100440.25;5063358;28;20037;-65
2022/11/09 00:43:12;;;;;;;6.55;2.40;;;;;;;13.08;83.62;100432.38;5063839;28;20049;-65
2022/11/09 00:45:39;;;;;;;6.00;3.03;;;;;;;13.09;83.74;100434.13;5063490;28;20292;-65
2022/11/09 00:48:05;;;;;;;5.93;2.25;;;;;;;13.10;84.01;100427.16;5064673;28;20041;-65
2022/11/09 00:50:30;;;;;;;6.38;2.80;;;;;;;13.12;83.39;100433.25;5064206;28;20040;-65
2022/11/09 00:52:55;;;;;;;5.85;2.30;;;;;;;13.12;83.39;100428.03;5063829;28;20037;-65
2022/11/09 00:55:22;;;;;;;6.93;2.80;;;;;;;13.12;83.37;100428.94;5063728;28;20279;-65
2022/11/09 00:57:48;;;;;;;6.55;2.40;;;;;;;13.13;83.32;100432.41;5064527;28;20075;-65
2022/11/09 01:00:22;;;;;;;5.90;2.50;;;;;;;13.14;83.08;100428.94;5063576;28;20035;-65
2022/11/09 01:02:49;;;;;;;5.60;2.20;;;;;;;13.16;83.25;100429.81;5061015;28;20055;-65
2022/11/09 01:05:15;;;;;;;5.85;2.60;;;;;;;13.17;82.98;100431.56;5063702;28;20092;-65
2022/11/09 01:07:40;;;;;;;7.80;2.50;;;;;;;13.16;82.71;100443.75;5058768;28;20055;-65
2022/11/09 01:10:07;;;;;;;5.00;2.30;;;;;;;13.16;82.65;100453.34;5063363;28;20135;-65
2022/11/09 01:12:32;;;;;;;6.60;2.47;;;;;;;13.18;82.62;100439.41;5062714;28;20039;-65
2022/11/09 01:14:58;;;;;;;7.75;2.65;;;;;;;13.18;82.50;100446.41;5063190;28;20241;-65
2022/11/09 01:17:23;;;;;;;5.68;2.60;;;;;;;13.17;82.42;100455.97;5063454;28;20025;-65
2022/11/09 01:19:49;;;;;;;6.93;2.65;;;;;;;13.17;82.32;100455.97;5063890;28;20263;-66
2022/11/09 01:22:15;;;;;;;9.05;3.33;;;;;;;13.17;82.25;100455.97;5063575;28;20021;-65
2022/11/09 01:24:40;;;;;;;9.40;2.70;;;;;;;13.17;82.12;100463.81;5063271;28;20045;-65
2022/11/09 01:27:05;;;;;;;8.35;2.60;;;;;;;13.16;82.18;100459.44;5062977;28;20032;-65
2022/11/09 01:29:31;;;;;;;9.52;2.80;;;;;;;13.15;82.11;100456.81;5062015;28;20059;-65
2022/11/09 01:31:56;;;;;;;8.82;2.50;;;;;;;13.14;81.89;100458.56;5063061;28;20049;-65
2022/11/09 01:34:21;;;;;;;8.10;2.60;;;;;;;13.12;81.93;100464.66;5061597;28;20039;-65
2022/11/09 01:36:50;;;;;;;8.23;2.80;;;;;;;13.12;81.83;100467.28;5063333;28;20048;-65
2022/11/09 01:39:17;;;;;;;6.88;2.50;;;;;;;13.11;81.86;100465.53;5061848;28;20099;-65
2022/11/09 01:41:42;;;;;;;6.53;2.45;;;;;;;13.08;81.94;100466.38;5078094;28;20052;-65
2022/11/09 01:44:07;;;;;;;9.00;2.60;;;;;;;13.07;81.88;100466.38;5062641;28;20025;-65
2022/11/09 01:46:47;;;;;;;8.88;2.40;;;;;;;13.07;81.76;100462.00;5078339;28;20230;-65
2022/11/09 01:49:20;;;;;;;6.43;2.22;;;;;;;13.06;81.68;100468.09;5063339;28;20048;-64
2022/11/09 01:51:55;;;;;;;5.82;2.08;;;;;;;13.04;81.79;100462.00;5062101;28;20170;-65
2022/11/09 01:54:29;;;;;;;7.82;2.50;;;;;;;13.03;81.85;100462.84;5063221;28;20040;-65
2022/11/09 01:56:58;;;;;;;6.97;2.50;;;;;;;13.00;81.76;100455.84;5061809;28;20272;-65
2022/11/09 01:59:28;;;;;;;6.00;2.28;;;;;;;13.01;81.63;100454.13;5062419;28;20051;-65
2022/11/09 02:01:54;;;;;;;6.32;2.47;;;;;;;13.01;81.50;100452.38;5061968;28;20032;-65
2022/11/09 02:04:24;;;;;;;5.97;2.50;;;;;;;12.97;81.83;100450.59;5062145;28;20075;-65
2022/11/09 02:06:49;;;;;;;7.95;2.58;;;;;;;12.95;82.02;100478.50;5062744;28;20017;-73
2022/11/09 02:09:30;;;;;;;7.03;2.40;;;;;;;12.94;81.96;100466.28;5063262;28;20376;-73
2022/11/09 02:11:55;;;;;;;5.63;2.30;;;;;;;12.92;81.79;100460.16;5060640;28;20055;-72
2022/11/09 02:14:23;;;;;;;7.22;2.05;;;;;;;12.90;81.76;100467.09;5061115;28;20021;-73
2022/11/09 02:16:49;;;;;;;7.10;2.20;;;;;;;12.88;81.94;100455.78;5059656;28;20067;-73
2022/11/09 02:19:14;;;;;;;5.45;2.08;;;;;;;12.87;81.95;100467.09;5060917;28;20108;-72
2022/11/09 02:21:40;;;;;;;8.30;2.58;;;;;;;12.86;81.92;100467.94;5060885;28;20047;-73
2022/11/09 02:24:05;;;;;;;8.38;2.42;;;;;;;12.85;82.12;100474.06;5061246;28;20066;-73
2022/11/09 02:26:47;;;;;;;8.73;2.25;;;;;;;12.84;82.25;100469.69;5058743;28;20161;-72
2022/11/09 02:29:17;;;;;;;5.93;2.03;;;;;;;12.82;82.13;100472.28;5062787;28;20032;-73
2022/11/09 02:31:48;;;;;;;9.05;2.30;;;;;;;12.82;82.39;100474.03;5062093;28;20095;-73
2022/11/09 02:34:17;;;;;;;5.78;2.30;;;;;;;12.81;82.43;100485.34;5059806;28;20024;-73
2022/11/09 02:36:43;;;;;;;6.28;2.35;;;;;;;12.80;82.38;100483.59;5062117;28;20028;-65
2022/11/09 02:39:10;;;;;;;9.27;2.63;;;;;;;12.80;82.26;100489.72;5061922;28;20263;-65
2022/11/09 02:41:42;;;;;;;7.82;2.00;;;;;;;12.82;82.25;100479.25;5061371;28;20092;-65
2022/11/09 02:44:08;;;;;;;8.52;2.50;;;;;;;12.82;81.93;100464.44;5061827;28;20164;-65
2022/11/09 02:46:35;;;;;;;6.63;1.90;;;;;;;12.82;81.69;100458.34;5062084;28;20028;-65
2022/11/09 02:49:02;;;;;;;6.95;2.42;;;;;;;12.82;81.68;100463.56;5057824;28;20276;-65
2022/11/09 02:51:27;;;;;;;8.63;2.35;;;;;;;12.83;81.04;100457.47;5055434;28;20028;-65
2022/11/09 02:53:53;;;;;;;6.82;2.10;;;;;;;12.86;81.17;100467.94;5054763;28;20108;-64
2022/11/09 02:56:18;;;;;;;7.65;2.10;;;;;;;12.87;81.10;100451.41;5054432;28;20032;-65
2022/11/09 02:58:44;;;;;;;7.68;2.17;;;;;;;12.87;80.76;100426.16;5056401;28;20266;-65
2022/11/09 03:01:09;;;;;;;7.85;1.95;;;;;;;12.89;80.54;100426.16;5054535;28;20109;-65
2022/11/09 03:03:34;;;;;;;6.85;1.73;;;;;;;12.90;80.33;100446.19;5054387;28;20021;-65
2022/11/09 03:06:00;;;;;;;8.13;1.90;;;;;;;12.90;79.98;100451.41;5054264;28;20029;-65
2022/11/09 03:08:25;;;;;;;7.43;1.92;;;;;;;12.91;80.34;100457.53;5070393;28;20096;-65
2022/11/09 03:10:50;;;;;;;6.68;1.67;;;;;;;12.91;80.33;100466.25;5054457;28;20025;-65
2022/11/09 03:13:15;;;;;;;8.38;1.90;;;;;;;12.91;80.50;100476.72;5054010;28;20044;-65
2022/11/09 03:15:41;;;;;;;9.85;2.05;;;;;;;12.90;80.57;100482.78;5054262;28;20074;-65
2022/11/09 03:18:06;;;;;;;6.53;1.95;;;;;;;12.87;80.62;100491.50;5054731;28;21533;-65
2022/11/09 03:20:32;;;;;;;8.13;1.80;;;;;;;12.87;80.67;100493.22;5053907;28;20045;-65
2022/11/09 03:22:58;;;;;;;9.07;1.83;;;;;;;12.86;80.73;100494.97;5054104;28;20048;-65
2022/11/09 03:25:24;;;;;;;8.10;2.75;;;;;;;12.86;80.72;100499.31;5054116;28;20086;-65
2022/11/09 03:27:50;;;;;;;8.48;2.00;;;;;;;12.87;80.99;100506.31;5056750;28;20129;-65
2022/11/09 03:30:17;;;;;;;7.93;2.08;;;;;;;12.83;81.31;100501.91;5056751;28;20231;-65
2022/11/09 03:32:43;;;;;;;7.53;1.80;;;;;;;12.81;81.31;100490.56;5058582;28;20267;-65
2022/11/09 03:35:09;;;;;;;9.27;2.10;;;;;;;12.78;81.86;100491.41;5054433;28;20044;-65
2022/11/09 03:37:34;;;;;;;9.45;2.03;;;;;;;12.77;81.62;100497.50;5054263;28;20020;-65
2022/11/09 03:39:59;;;;;;;7.97;1.77;;;;;;;12.77;81.40;100499.25;5054011;28;20059;-65
2022/11/09 03:42:24;;;;;;;8.32;1.92;;;;;;;12.75;81.92;100504.47;5053518;28;20063;-65
2022/11/09 03:44:50;;;;;;;8.25;1.88;;;;;;;12.75;81.86;100516.69;5053689;28;20025;-65
2022/11/09 03:47:15;;;;;;;6.75;1.90;;;;;;;12.74;82.08;100517.53;5053240;28;20108;-73
2022/11/09 03:49:40;;;;;;;7.25;2.05;;;;;;;12.71;82.49;100526.22;5054079;28;20037;-73
2022/11/09 03:52:06;;;;;;;10.50;2.00;;;;;;;12.70;82.41;100519.22;5053659;28;20021;-73
2022/11/09 03:54:31;;;;;;;11.68;2.53;;;;;;;12.69;82.56;100527.94;5054397;28;20330;-73
2022/11/09 03:56:56;;;;;;;8.15;2.00;;;;;;;12.66;82.88;100528.78;5054089;28;20241;-72
2022/11/09 03:59:22;;;;;;;8.40;1.80;;;;;;;12.66;82.97;100543.59;5060093;28;20021;-72
2022/11/09 04:01:47;;;;;;;7.38;2.15;;;;;;;12.65;83.24;100541.84;5061730;28;20079;-73
2022/11/09 04:04:12;;;;;;;7.07;2.22;;;;;;;12.63;83.50;100554.91;5064709;28;20029;-73
2022/11/09 04:06:37;;;;;;;11.18;2.08;;;;;;;12.62;83.35;100554.88;5064232;28;20083;-73
2022/11/09 04:09:03;;;;;;;9.70;2.08;;;;;;;12.59;83.39;100552.25;5064792;28;20028;-73
2022/11/09 04:11:28;;;;;;;7.00;1.73;;;;;;;12.56;83.61;100547.84;5063999;28;20085;-73
2022/11/09 04:13:53;;;;;;;8.25;1.80;;;;;;;12.53;83.56;100550.44;5064244;28;20036;-73
2022/11/09 04:16:19;;;;;;;6.97;1.88;;;;;;;12.50;83.75;100553.03;5064186;28;20028;-65
2022/11/09 04:18:44;;;;;;;10.48;1.90;;;;;;;12.47;83.83;100555.56;5063531;28;20025;-65
2022/11/09 04:21:09;;;;;;;11.23;1.90;;;;;;;12.44;83.97;100558.16;5064375;28;20096;-65
2022/11/09 04:23:34;;;;;;;6.82;1.77;;;;;;;12.42;84.14;100570.34;5064405;28;20021;-65
2022/11/09 04:26:00;;;;;;;9.05;1.95;;;;;;;12.41;84.30;100565.97;5064161;28;20249;-65
2022/11/09 04:28:25;;;;;;;8.07;2.00;;;;;;;12.40;84.52;100569.44;5064496;28;20020;-65
2022/11/09 04:30:51;;;;;;;12.60;2.13;;;;;;;12.38;84.54;100579.84;5063446;28;20269;-65
2022/11/09 04:33:16;;;;;;;9.10;2.20;;;;;;;12.35;84.54;100575.50;5063469;28;20033;-65
2022/11/09 04:35:41;;;;;;;7.13;1.80;;;;;;;12.33;84.62;100582.44;5062596;28;20086;-65
2022/11/09 04:38:10;;;;;;;10.32;2.13;;;;;;;12.32;84.71;100579.78;5061394;28;20051;-65
2022/11/09 04:40:35;;;;;;;5.95;1.92;;;;;;;12.32;85.00;100590.25;5063630;28;20075;-65
2022/11/09 04:43:03;;;;;;;7.63;2.40;;;;;;;12.32;84.71;100591.13;5061670;28;20032;-65
2022/11/09 04:45:28;;;;;;;9.45;2.50;;;;;;;12.33;85.10;100592.00;5062953;28;20025;-65
2022/11/09 04:47:57;;;;;;;10.00;2.28;;;;;;;12.33;85.22;100581.56;5062898;28;20055;-65
2022/11/09 04:50:23;;;;;;;;;;;;;;;12.39;84.03;100599.91;5063497;28;20048;-65
2022/11/09 04:52:48;;;;;;;7.07;1.80;;;;;;;12.35;84.66;100590.28;5064555;28;19975;-65
2022/11/09 04:55:14;;;;;;;8.90;2.40;;;;;;;12.33;84.81;100582.44;5062963;28;20184;-65
2022/11/09 04:57:39;;;;;;;7.57;1.98;;;;;;;12.32;84.80;100588.50;5063563;28;20028;-65
2022/11/09 05:00:04;;;;;;;9.40;2.38;;;;;;;12.28;85.09;100586.72;5062396;28;20032;-65
2022/11/09 05:02:30;;;;;;;10.40;2.33;;;;;;;12.27;85.22;100591.94;5063565;28;20053;-65
2022/11/09 05:04:56;;;;;;;11.05;2.10;;;;;;;12.25;85.44;100578.88;5063663;28;20309;-65
2022/11/09 05:07:21;;;;;;;8.32;2.25;;;;;;;12.23;85.22;100583.19;5062895;28;20052;-65
2022/11/09 05:09:46;;;;;;;8.35;2.30;;;;;;;12.20;85.52;100580.53;5063591;28;20035;-66
2022/11/09 05:12:12;;;;;;;6.78;2.28;;;;;;;12.18;85.81;100584.88;5063801;28;20029;-65
2022/11/09 05:14:37;;;;;;;11.48;2.30;;;;;;;12.16;85.75;100578.72;5062385;28;20025;-65
2022/11/09 05:17:02;;;;;;;8.57;2.22;;;;;;;12.14;85.85;100586.53;5063620;28;20029;-65
2022/11/09 05:19:28;;;;;;;10.73;2.28;;;;;;;12.14;85.71;100577.84;5063415;28;20284;-65
2022/11/09 05:21:53;;;;;;;10.30;2.08;;;;;;;12.12;85.83;100579.53;5063565;28;20075;-65
2022/11/09 05:24:18;;;;;;;9.52;2.40;;;;;;;12.09;86.00;100574.28;5061913;28;20203;-65
2022/11/09 05:26:43;;;;;;;9.00;2.00;;;;;;;12.07;85.94;100571.66;5062925;28;20055;-73
2022/11/09 05:29:10;;;;;;;12.07;2.20;;;;;;;12.05;86.26;100569.88;5062569;28;20048;-73
2022/11/09 05:31:37;;;;;;;8.60;2.08;;;;;;;12.03;86.24;100577.69;5062773;28;20084;-73
2022/11/09 05:34:04;;;;;;;7.95;2.13;;;;;;;12.01;86.20;100584.63;5062913;28;20299;-73
2022/11/09 05:36:30;;;;;;;8.63;2.13;;;;;;;12.00;86.49;100575.91;5062538;28;20025;-73
2022/11/09 05:38:56;;;;;;;8.82;2.42;;;;;;;11.99;86.22;100583.72;5061694;28;20036;-72
2022/11/09 05:41:22;;;;;;;8.65;2.30;;;;;;;11.97;86.37;100586.31;5062397;28;20036;-73
2022/11/09 05:43:48;;;;;;;8.15;2.40;;;;;;;11.95;86.33;100585.44;5062540;28;20025;-73
2022/11/09 05:46:15;;;;;;;10.82;2.30;;;;;;;11.93;86.26;100581.91;5063153;28;20165;-73
2022/11/09 05:48:41;;;;;;;8.52;2.00;;;;;;;11.93;86.52;100581.91;5063525;28;20176;-73
2022/11/09 05:51:08;;;;;;;8.00;2.42;;;;;;;11.91;86.46;100578.38;5062906;28;20075;-73
2022/11/09 05:53:33;;;;;;;9.90;2.15;;;;;;;11.89;86.70;100585.31;5078710;28;20208;-73
2022/11/09 05:56:03;;;;;;;11.48;2.13;;;;;;;11.87;86.76;100586.16;5062629;28;20071;-73
2022/11/09 05:58:28;;;;;;;8.40;2.10;;;;;;;11.86;86.64;100576.56;5062705;28;20027;-72
2022/11/09 06:00:54;;;;;;;9.52;2.35;;;;;;;11.84;86.88;100581.75;5062402;28;20024;-73
2022/11/09 06:03:19;;;;;;;10.85;2.35;;;;;;;11.82;86.66;100578.25;5062569;28;20108;-73
2022/11/09 06:05:45;;;;;;;6.93;2.35;;;;;;;11.81;86.91;100581.72;5062372;28;20276;-73
2022/11/09 06:08:13;;;;;;;12.82;2.53;;;;;;;11.79;86.91;100583.44;5060579;28;20282;-72
2022/11/09 06:10:39;;;;;;;7.55;2.45;;;;;;;11.77;86.96;100582.53;5062525;28;20194;-72
2022/11/09 06:13:05;;;;;;;15.40;3.50;;;;;;;11.74;87.13;100583.34;5062302;28;20271;-73
2022/11/09 06:15:30;;;;;;;17.20;4.03;;;;;;;11.72;87.38;100590.28;5061622;28;20029;-73
2022/11/09 06:17:56;;;;;;;9.57;2.80;;;;;;;11.71;87.29;100585.06;5061571;28;20070;-72
2022/11/09 06:20:23;;;;;;;12.88;2.58;;;;;;;11.70;87.60;100593.72;5062207;28;20043;-73
2022/11/09 06:22:55;;;;;;;11.20;2.40;;;;;;;11.70;87.61;100596.34;5062889;28;20259;-73
2022/11/09 06:25:21;;;;;;;9.70;2.40;;;;;;;11.68;87.61;100596.31;5061016;28;20017;-73
2022/11/09 06:27:47;;;;;;;8.98;2.45;;;;;;;11.69;87.64;100602.41;5062128;28;20079;-72
2022/11/09 06:30:12;;;;;;;8.93;2.20;;;;;;;11.67;87.81;100599.78;5061554;28;20273;-73
2022/11/09 06:32:38;;;;;;;11.65;2.88;;;;;;;11.65;88.08;100593.66;5061963;28;20029;-72
2022/11/09 06:35:03;;;;;;;10.90;2.72;;;;;;;11.64;88.09;100603.22;5061920;28;20303;-72
2022/11/09 06:37:29;;;;;;;14.95;2.65;;;;;;;11.64;88.46;100603.22;5061370;28;20048;-73
2022/11/09 06:39:54;;;;;;;15.60;2.92;;;;;;;11.63;88.38;100603.22;5061099;28;20033;-73
2022/11/09 06:42:19;;;;;;;11.20;2.45;;;;;;;11.63;88.56;100611.91;5061957;28;20029;-72
2022/11/09 06:44:44;;;;;;;7.93;2.28;;;;;;;11.62;88.80;100607.53;5059842;28;20084;-73
2022/11/09 06:47:10;;;;;;;8.88;2.20;;;;;;;11.63;88.55;100611.91;5059560;28;20108;-73
2022/11/09 06:49:35;;;;;;;8.63;2.50;;;;;;;11.62;88.75;100615.38;5054477;28;20071;-72
2022/11/09 06:52:00;;;;;;;7.85;2.33;;;;;;;11.61;88.67;100615.34;5054558;28;21204;-73
2022/11/09 06:54:26;;;;;;;9.88;2.50;;;;;;;11.59;88.91;100617.94;5055021;28;20111;-73
2022/11/09 06:56:53;;;;;;;9.13;2.47;;;;;;;11.58;88.80;100615.28;5057113;28;20110;-65
2022/11/09 06:59:19;;;;;;;8.32;2.45;;;;;;;11.59;89.15;100617.06;5054456;28;20029;-65
2022/11/09 07:01:44;;;;;;;9.27;2.45;;;;;;;11.59;89.23;100628.38;5054765;28;20041;-65
2022/11/09 07:04:13;;;;;;;11.10;3.20;;;;;;;11.59;89.28;100624.91;5054446;28;20034;-64
2022/11/09 07:06:41;;;;;;;8.30;2.20;;;;;;;11.57;89.18;100632.69;5053229;28;20040;-65
2022/11/09 07:09:08;;;;;;;11.10;2.22;;;;;;;11.55;89.29;100629.16;5053897;28;20091;-65
2022/11/09 07:11:34;;;;;;;10.30;2.50;;;;;;;11.56;89.21;100624.84;5054085;28;20025;-65
2022/11/09 07:14:01;;;;;;;9.25;2.30;;;;;;;11.56;88.82;100633.53;5054626;28;20210;-65
2022/11/09 07:16:27;;;;;;;12.55;2.60;;;;;;;11.55;89.06;100631.78;5053834;28;20060;-65
2022/11/09 07:18:52;;;;;;;11.38;2.50;;;;;;;11.54;88.83;100637.84;5054941;28;20041;-65
2022/11/09 07:21:18;;;;;;;9.68;2.40;;;;;;;11.52;88.91;100633.47;5052263;28;20032;-65
2022/11/09 07:23:46;;;;;;;9.60;2.63;;;;;;;11.52;89.02;100642.16;5054543;28;20130;-65
2022/11/09 07:26:11;;;;;;;10.43;2.60;;;;;;;11.52;89.13;100644.78;5053549;28;20264;-65
2022/11/09 07:28:37;;;;;;;11.15;2.55;;;;;;;11.54;89.17;100640.44;5054433;28;20299;-65
2022/11/09 07:31:03;;;;;;;9.55;2.50;;;;;;;11.55;88.97;100646.56;5055711;28;20025;-65
2022/11/09 07:33:31;;;;;;;11.32;2.40;;;;;;;11.56;89.07;100649.19;5054300;28;20056;-65
2022/11/09 07:36:00;;;;;;;10.68;2.78;;;;;;;11.56;89.05;100643.13;5054086;28;20291;-65
2022/11/09 07:38:27;;;;;;;;;;;;;;;11.61;88.13;100649.25;5057729;28;20028;-65
2022/11/09 07:40:52;;;;;;;8.73;2.55;;;;;;;11.57;89.30;100644.84;5058139;28;19986;-65
2022/11/09 07:43:19;;;;;;;9.48;2.38;;;;;;;11.56;88.86;100643.13;5056793;28;20037;-65
2022/11/09 07:45:44;;;;;;;7.13;2.10;;;;;;;11.54;89.37;100645.66;5057882;28;20043;-65
2022/11/09 07:48:10;;;;;;;8.23;2.00;;;;;;;11.53;89.30;100649.16;5057978;28;20045;-65
2022/11/09 07:50:38;;;;;;;12.20;2.78;;;;;;;11.54;89.07;100644.81;5057476;28;20255;-65
2022/11/09 07:53:06;;;;;;;8.73;2.38;;;;;;;11.53;89.31;100646.53;5073152;28;20094;-65
2022/11/09 07:55:32;;;;;;;9.52;2.55;;;;;;;11.55;89.45;100649.19;5057978;28;20112;-65
2022/11/09 07:58:00;;;;;;;12.18;2.85;;;;;;;11.57;89.34;100655.28;5057204;28;20021;-65
2022/11/09 08:00:27;;;;;;;7.25;2.70;;;;;;;11.61;89.26;100662.31;5057624;28;20048;-65
2022/11/09 08:02:52;;;;;;;8.38;2.92;;;;;;;11.63;89.41;100665.84;5056886;28;20021;-65
2022/11/09 08:05:18;;;;;;;9.63;2.35;;;;;;;11.65;89.28;100659.78;5054827;28;20168;-64
2022/11/09 08:07:43;;;;;;;11.15;3.08;;;;;;;11.69;89.41;100665.03;5057179;28;20044;-65
2022/11/09 08:10:09;;;;;;;7.20;2.15;;;;;;;11.72;89.12;100665.13;5057249;28;20044;-65
2022/11/09 08:12:34;;;;;;;9.15;2.40;;;;;;;11.73;88.92;100666.84;5057139;28;20029;-65
2022/11/09 08:14:59;;;;;;;10.27;2.53;;;;;;;11.73;88.58;100665.13;5057476;28;20028;-66
2022/11/09 08:17:24;;;;;;;9.00;2.38;;;;;;;11.74;88.69;100672.09;5072785;28;20032;-65
2022/11/09 08:19:50;;;;;;;11.13;3.05;;;;;;;11.75;88.64;100675.59;5057948;28;20468;-65
2022/11/09 08:22:15;;;;;;;10.63;2.60;;;;;;;11.75;88.43;100681.69;5072558;28;20056;-65
2022/11/09 08:24:40;;;;;;;9.18;2.53;;;;;;;11.76;88.56;100682.56;5057547;28;20222;-65
2022/11/09 08:27:06;;;;;;;11.63;2.38;;;;;;;11.76;88.65;100686.06;5063439;28;20044;-65
2022/11/09 08:29:31;;;;;;;12.45;2.28;;;;;;;11.77;88.71;100685.19;5064208;28;20020;-65
2022/11/09 08:31:56;;;;;;;10.57;2.80;;;;;;;11.79;88.65;100687.84;5057363;28;20229;-65
2022/11/09 08:34:21;;;;;;;8.25;2.22;;;;;;;11.80;88.57;100692.19;5057148;28;20029;-65
2022/11/09 08:36:47;;;;;;;14.23;2.80;;;;;;;11.81;88.48;100691.34;5060594;28;20287;-73
2022/11/09 08:39:12;;;;;;;8.05;2.60;;;;;;;11.84;87.87;100697.50;5058192;28;20094;-72
2022/11/09 08:41:37;;;;;;;12.90;2.60;;;;;;;11.84;87.85;100700.09;5061359;28;20059;-72
2022/11/09 08:44:03;;;;;;;8.98;2.63;;;;;;;11.84;88.17;100702.72;5062343;28;20351;-72
2022/11/09 08:46:28;;;;;;;10.70;2.67;;;;;;;11.87;87.81;100701.88;5061751;28;20123;-72
2022/11/09 08:48:54;;;;;;;11.90;2.63;;;;;;;11.90;88.26;100701.94;5059486;28;20032;-71
2022/11/09 08:51:19;;;;;;;10.23;3.05;;;;;;;11.95;87.63;100702.06;5057861;28;20021;-74
2022/11/09 08:53:44;;;;;;;8.43;2.42;;;;;;;11.99;87.59;100702.13;5056727;28;20108;-73
2022/11/09 08:56:11;;;;;;;8.02;2.20;;;;;;;12.04;87.50;100703.94;5063350;28;20088;-73
2022/11/09 08:58:37;;;;;;;8.68;2.30;;;;;;;12.06;86.77;100702.22;5060702;28;20036;-72
2022/11/09 09:01:09;;;;;;;6.88;2.70;;;;;;;12.09;86.77;100699.63;5063681;28;20037;-73
2022/11/09 09:03:35;;;;;;;10.65;2.35;;;;;;;12.10;86.63;100701.41;5061510;28;20048;-73
2022/11/09 09:06:05;;;;;;;9.13;2.65;;;;;;;12.12;86.49;100703.19;5061712;28;20267;-73
2022/11/09 09:08:31;;;;;;;7.60;2.03;;;;;;;12.15;86.58;100711.06;5055015;28;20271;-73
2022/11/09 09:10:56;;;;;;;9.32;2.33;;;;;;;12.18;85.80;100710.25;5054575;28;20025;-72
2022/11/09 09:13:21;;;;;;;11.63;2.38;;;;;;;12.21;85.98;100707.69;5055828;28;20032;-73
2022/11/09 09:15:47;;;;;;;8.38;2.35;;;;;;;12.23;85.33;100711.19;5056106;28;20029;-73
2022/11/09 09:18:13;;;;;;;10.93;2.40;;;;;;;12.24;85.81;100707.72;5056435;28;20036;-73
2022/11/09 09:20:38;;;;;;;10.15;2.63;;;;;;;12.27;85.60;100704.28;5056570;28;20028;-73
2022/11/09 09:23:04;;;;;;;11.40;2.60;;;;;;;12.29;84.99;100713.88;5055762;28;20033;-73
2022/11/09 09:25:29;;;;;;;12.23;2.72;;;;;;;12.31;84.78;100711.28;5055325;28;20267;-73
2022/11/09 09:27:54;;;;;;;8.80;2.30;;;;;;;12.31;84.63;100704.34;5058518;28;20290;-72
2022/11/09 09:30:20;;;;;;;8.95;2.58;;;;;;;12.29;84.61;100708.66;5059390;28;20291;-72
2022/11/09 09:32:45;;;;;;;11.57;2.53;;;;;;;12.32;84.11;100713.91;5055959;28;20271;-73
2022/11/09 09:35:10;;;;;;;8.68;2.40;;;;;;;12.34;84.24;100722.66;5055736;28;20036;-73
2022/11/09 09:37:36;;;;;;;9.63;2.40;;;;;;;12.35;84.09;100718.31;5059963;28;20262;-73
2022/11/09 09:40:01;;;;;;;11.02;2.30;;;;;;;12.39;83.50;100721.84;5058055;28;20032;-73
2022/11/09 09:42:33;;;;;;;8.98;2.20;;;;;;;12.42;83.47;100719.28;5059832;28;21314;-73
2022/11/09 09:45:04;;;;;;;10.23;2.50;;;;;;;12.44;83.75;100725.41;5061812;28;20059;-73
2022/11/09 09:47:52;;;;;;;11.85;2.72;;;;;;;12.46;83.85;100728.94;5059511;28;20029;-73
2022/11/09 09:50:21;;;;;;;12.60;2.45;;;;;;;12.50;82.50;100730.72;5058560;28;20083;-72
2022/11/09 09:52:56;;;;;;;13.10;2.65;;;;;;;12.52;82.86;100732.47;5061772;28;20055;-72
2022/11/09 09:55:30;;;;;;;8.73;2.20;;;;;;;12.56;83.08;100736.03;5061422;28;20171;-72
2022/11/09 09:58:05;;;;;;;8.15;2.10;;;;;;;12.61;82.89;100750.03;5062598;28;20300;-72
2022/11/09 10:00:32;;;;;;;10.52;2.30;;;;;;;12.65;82.67;100751.81;5059190;28;20029;-73
2022/11/09 10:02:58;;;;;;;7.80;2.10;;;;;;;12.71;81.77;100756.25;5059835;28;20029;-72
2022/11/09 10:05:32;;;;;;;9.95;2.67;;;;;;;12.75;81.66;100751.97;5058063;28;20280;-72
2022/11/09 10:08:37;;;;;;;9.88;2.30;;;;;;;12.76;82.14;100751.09;5055950;28;20112;-73
2022/11/09 10:11:21;;;;;;;10.63;2.03;;;;;;;12.85;81.33;100753.84;5054454;28;20020;-72
2022/11/09 10:14:10;;;;;;;12.23;2.20;;;;;;;12.94;81.54;100759.19;5054506;28;20033;-72
2022/11/09 10:16:50;;;;;;;15.23;2.63;;;;;;;13.04;80.11;100755.81;5034801;28;20075;-72
2022/11/09 10:19:41;;;;;;;8.75;3.10;;;;;;;13.08;80.19;100755.84;5056058;28;20079;-72
2022/11/09 10:22:25;;;;;;;9.63;2.30;;;;;;;13.05;78.94;100759.31;5059005;28;20044;-72
2022/11/09 10:25:05;;;;;;;11.85;2.20;;;;;;;13.03;80.02;100758.41;5057811;28;20039;-70
2022/11/09 10:27:35;;;;;;;8.70;1.95;;;;;;;13.05;78.97;100749.72;5060711;28;20029;-70
2022/11/09 10:30:13;;;;;;;8.30;1.92;;;;;;;13.10;77.97;100748.91;5060779;28;20168;-69
2022/11/09 10:32:41;;;;;;;8.10;2.33;;;;;;;13.16;78.97;100752.44;5053359;28;20292;-69
2022/11/09 10:35:12;;;;;;;8.73;1.90;;;;;;;13.24;77.98;100747.34;5061763;28;20039;-70
2022/11/09 10:37:41;;;;;;;9.68;2.00;;;;;;;13.27;77.47;100763.06;5062222;28;20021;-70
2022/11/09 10:40:19;;;;;;;15.40;2.45;;;;;;;13.28;77.02;100770.06;5061894;28;20032;-69
2022/11/09 10:42:49;;;;;;;11.27;2.45;;;;;;;13.25;76.48;100762.16;5053775;28;20235;-70
2022/11/09 10:45:28;;;;;;;9.38;2.10;;;;;;;13.25;76.89;100767.38;5078086;28;20082;-70
2022/11/09 10:47:54;;;;;;;12.05;2.50;;;;;;;13.26;76.30;100777.00;5055208;28;20131;-70
2022/11/09 10:50:37;;;;;;;11.75;2.45;;;;;;;13.23;76.19;100779.56;5061271;28;20256;-70
2022/11/09 10:53:26;;;;;;;7.45;1.98;;;;;;;13.23;76.16;100774.34;5061941;28;20052;-70
2022/11/09 10:56:03;;;;;;;8.90;2.03;;;;;;;13.21;76.77;100786.53;5061945;28;20070;-70
2022/11/09 10:58:37;;;;;;;11.70;2.15;;;;;;;13.21;77.10;100778.69;5077208;28;20035;-70
2022/11/09 11:01:13;;;;;;;8.15;1.80;;;;;;;13.22;76.42;100781.31;5060973;28;20063;-69
2022/11/09 11:03:40;;;;;;;6.28;2.03;;;;;;;13.22;76.08;100785.66;5061822;28;20271;-71
2022/11/09 11:06:14;;;;;;;11.43;2.22;;;;;;;13.21;76.96;100786.53;5061119;28;20128;-70
2022/11/09 11:08:45;;;;;;;8.57;2.00;;;;;;;13.20;77.12;100788.25;5062235;28;20031;-69
2022/11/09 11:11:19;;;;;;;10.10;2.20;;;;;;;13.24;77.28;100786.56;5063008;28;20032;-70
2022/11/09 11:13:45;;;;;;;8.70;2.30;;;;;;;13.32;76.57;100787.53;5068421;28;20035;-70
2022/11/09 11:16:34;;;;;;;10.68;2.30;;;;;;;13.36;76.35;100784.13;5066731;28;20157;-69
2022/11/09 11:19:01;;;;;;;7.43;2.03;;;;;;;13.35;75.92;100790.22;5062928;28;20047;-69
2022/11/09 11:21:27;;;;;;;8.60;2.10;;;;;;;13.34;76.23;100798.03;5067592;28;20045;-69
2022/11/09 11:24:11;;;;;;;7.10;1.90;;;;;;;13.33;75.77;100794.53;5068009;28;20153;-69
2022/11/09 11:26:45;;;;;;;10.20;2.20;;;;;;;13.29;74.94;100797.97;5068042;28;20021;-69